createdAt,value
2023-02-22T00:00:18.089Z,9.54
2023-02-22T00:02:56.237Z,9.57
2023-02-22T00:05:28.830Z,9.07
2023-02-22T00:08:00.378Z,9.07
2023-02-22T00:10:32.046Z,9.30
2023-02-22T00:13:05.981Z,9.34
2023-02-22T00:15:37.591Z,9.40
2023-02-22T00:18:12.012Z,9.24
2023-02-22T00:20:43.599Z,9.09
2023-02-22T00:23:18.546Z,8.71
2023-02-22T00:25:50.802Z,8.95
2023-02-22T00:28:22.913Z,9.04
2023-02-22T00:30:54.572Z,9.14
2023-02-22T00:33:26.185Z,8.99
2023-02-22T00:35:58.610Z,8.83
2023-02-22T00:38:35.810Z,8.89
2023-02-22T00:41:08.115Z,9.15
2023-02-22T00:43:39.662Z,9.26
2023-02-22T00:46:13.720Z,9.17
2023-02-22T00:48:45.367Z,8.60
2023-02-22T00:51:17.282Z,8.92
2023-02-22T00:53:49.122Z,9.06
2023-02-22T00:56:20.893Z,9.10
2023-02-22T00:58:52.527Z,9.36
2023-02-22T01:01:24.419Z,9.05
2023-02-22T01:03:56.127Z,8.23
2023-02-22T01:06:28.144Z,8.51
2023-02-22T01:08:59.963Z,8.74
2023-02-22T01:11:31.638Z,8.49
2023-02-22T01:14:03.298Z,8.71
2023-02-22T01:16:35.631Z,8.75
2023-02-22T01:19:07.394Z,8.89
2023-02-22T01:21:40.734Z,8.86
2023-02-22T01:24:12.613Z,8.82
2023-02-22T01:26:50.641Z,8.76
2023-02-22T01:29:22.348Z,8.79
2023-02-22T01:31:56.359Z,8.69
2023-02-22T01:34:28.675Z,8.36
2023-02-22T01:37:00.796Z,8.16
2023-02-22T01:39:33.047Z,8.35
2023-02-22T01:42:04.676Z,8.16
2023-02-22T01:44:38.865Z,7.63
2023-02-22T01:47:10.425Z,8.20
2023-02-22T01:49:47.700Z,8.32
2023-02-22T01:52:21.514Z,8.36
2023-02-22T01:54:58.592Z,8.35
2023-02-22T01:57:36.689Z,8.62
2023-02-22T02:00:13.591Z,8.51
2023-02-22T02:02:51.022Z,8.22
2023-02-22T02:05:29.151Z,8.46
2023-02-22T02:08:13.322Z,8.49
2023-02-22T02:10:48.542Z,8.46
2023-02-22T02:13:20.568Z,8.36
2023-02-22T02:15:56.847Z,7.77
2023-02-22T02:18:29.782Z,7.54
2023-02-22T02:21:39.182Z,7.48
2023-02-22T02:24:32.723Z,7.44
2023-02-22T02:27:27.485Z,6.86
2023-02-22T02:30:24.010Z,7.24
2023-02-22T02:33:01.491Z,7.49
2023-02-22T02:35:45.290Z,7.96
2023-02-22T02:38:38.506Z,8.01
2023-02-22T02:41:18.624Z,8.24
2023-02-22T02:44:07.900Z,7.90
2023-02-22T02:46:58.149Z,8.29
2023-02-22T02:49:51.601Z,8.16
2023-02-22T02:52:27.286Z,8.03
2023-02-22T02:55:01.735Z,7.94
2023-02-22T02:57:33.413Z,8.25
2023-02-22T03:00:07.811Z,7.76
2023-02-22T03:03:02.326Z,7.97
2023-02-22T03:05:52.446Z,8.20
2023-02-22T03:08:47.717Z,7.84
2023-02-22T03:11:30.518Z,7.93
2023-02-22T03:14:22.311Z,7.92
2023-02-22T03:16:57.040Z,7.90
2023-02-22T03:20:03.967Z,7.87
2023-02-22T03:22:55.635Z,7.71
2023-02-22T03:25:43.351Z,7.50
2023-02-22T03:28:19.698Z,7.58
2023-02-22T03:31:06.035Z,7.37
2023-02-22T03:33:48.873Z,7.65
2023-02-22T03:36:34.002Z,7.67
2023-02-22T03:39:13.693Z,7.55
2023-02-22T03:41:49.679Z,7.88
2023-02-22T03:44:27.536Z,7.75
2023-02-22T03:47:07.385Z,7.97
2023-02-22T03:49:53.629Z,8.11
2023-02-22T03:52:25.659Z,8.17
2023-02-22T03:54:57.526Z,8.01
2023-02-22T03:57:35.429Z,7.97
2023-02-22T04:00:12.361Z,7.14
2023-02-22T04:02:49.351Z,7.53
2023-02-22T04:05:27.161Z,7.95
2023-02-22T04:07:58.928Z,7.58
2023-02-22T04:10:32.379Z,7.77
2023-02-22T04:13:05.499Z,7.59
2023-02-22T04:15:38.408Z,7.82
2023-02-22T04:18:13.958Z,7.51
2023-02-22T04:20:46.148Z,7.52
2023-02-22T04:23:25.905Z,7.04
2023-02-22T04:25:57.846Z,7.29
2023-02-22T04:28:29.511Z,7.64
2023-02-22T04:31:11.884Z,7.51
2023-02-22T04:33:44.411Z,6.92
2023-02-22T04:36:19.708Z,6.94
2023-02-22T04:38:51.666Z,7.49
2023-02-22T04:41:25.342Z,7.63
2023-02-22T04:43:57.506Z,7.38
2023-02-22T04:46:30.900Z,7.03
2023-02-22T04:49:02.907Z,7.39
2023-02-22T04:51:37.423Z,7.29
2023-02-22T04:54:14.801Z,7.37
2023-02-22T04:56:50.027Z,7.47
2023-02-22T04:59:21.688Z,6.96
2023-02-22T05:01:59.598Z,7.51
2023-02-22T05:04:31.173Z,7.65
2023-02-22T05:07:02.824Z,7.40
2023-02-22T05:09:34.462Z,7.80
2023-02-22T05:12:06.344Z,7.73
2023-02-22T05:14:37.977Z,7.54
2023-02-22T05:17:09.644Z,7.49
2023-02-22T05:19:41.254Z,7.75
2023-02-22T05:22:12.908Z,7.83
2023-02-22T05:24:44.530Z,7.92
2023-02-22T05:27:16.127Z,7.58
2023-02-22T05:29:47.649Z,7.61
2023-02-22T05:32:19.332Z,7.64
2023-02-22T05:34:50.959Z,7.72
2023-02-22T05:37:22.571Z,7.65
2023-02-22T05:39:54.190Z,7.59
2023-02-22T05:42:25.733Z,7.69
2023-02-22T05:44:57.299Z,7.64
2023-02-22T05:47:29.099Z,7.71
2023-02-22T05:50:00.768Z,7.27
2023-02-22T05:52:32.436Z,7.07
2023-02-22T05:55:05.795Z,7.25
2023-02-22T05:57:37.383Z,7.37
2023-02-22T06:00:10.682Z,6.63
2023-02-22T06:02:45.396Z,6.97
2023-02-22T06:05:17.042Z,7.44
2023-02-22T06:07:48.830Z,6.83
2023-02-22T06:10:21.142Z,6.86
2023-02-22T06:12:54.034Z,7.28
2023-02-22T06:15:27.383Z,7.00
2023-02-22T06:17:59.252Z,6.95
2023-02-22T06:20:31.241Z,6.90
2023-02-22T06:23:03.005Z,6.73
2023-02-22T06:25:34.648Z,6.60
2023-02-22T06:28:06.262Z,6.78
2023-02-22T06:30:37.969Z,6.78
2023-02-22T06:33:10.240Z,6.75
2023-02-22T06:35:41.878Z,6.57
2023-02-22T06:38:25.300Z,6.80
2023-02-22T06:40:57.283Z,7.14
2023-02-22T06:43:28.904Z,7.11
2023-02-22T06:46:00.495Z,6.89
2023-02-22T06:48:32.300Z,6.94
2023-02-22T06:51:04.531Z,6.92
2023-02-22T06:53:36.376Z,6.98
2023-02-22T06:56:08.053Z,7.31
2023-02-22T06:58:40.119Z,7.51
2023-02-22T07:01:12.294Z,7.24
2023-02-22T07:03:44.377Z,7.88
2023-02-22T07:06:16.375Z,7.89
2023-02-22T07:08:48.857Z,7.64
2023-02-22T07:11:20.540Z,7.94
2023-02-22T07:13:52.189Z,8.64
2023-02-22T07:16:23.777Z,8.30
2023-02-22T07:18:55.428Z,8.75
2023-02-22T07:21:29.112Z,8.54
2023-02-22T07:24:00.759Z,8.58
2023-02-22T07:26:38.886Z,8.57
2023-02-22T07:29:10.462Z,8.95
2023-02-22T07:31:42.035Z,9.78
2023-02-22T07:34:13.867Z,10.82
2023-02-22T07:36:45.638Z,10.62
2023-02-22T07:39:17.302Z,11.46
2023-02-22T07:41:48.922Z,11.73
2023-02-22T07:44:27.565Z,11.71
2023-02-22T07:46:59.228Z,11.88
2023-02-22T07:49:30.882Z,13.53
2023-02-22T07:52:02.746Z,14.31
2023-02-22T07:54:34.339Z,14.81
2023-02-22T07:57:05.928Z,15.16
2023-02-22T07:59:37.490Z,15.31
2023-02-22T08:02:17.086Z,15.62
2023-02-22T08:04:48.688Z,16.30
2023-02-22T08:07:20.280Z,14.17
2023-02-22T08:09:51.921Z,14.00
2023-02-22T08:12:23.506Z,13.99
2023-02-22T08:14:55.058Z,13.66
2023-02-22T08:17:26.606Z,13.54
2023-02-22T08:19:58.164Z,13.09
2023-02-22T08:22:29.726Z,13.25
2023-02-22T08:25:01.290Z,12.17
2023-02-22T08:27:32.873Z,11.98
2023-02-22T08:30:05.537Z,11.97
2023-02-22T08:32:37.160Z,11.80
2023-02-22T08:35:09.260Z,12.10
2023-02-22T08:37:44.777Z,11.64
2023-02-22T08:40:19.260Z,11.98
2023-02-22T08:42:51.113Z,10.83
2023-02-22T08:45:23.188Z,10.50
2023-02-22T08:47:55.133Z,9.91
2023-02-22T08:50:29.893Z,10.11
2023-02-22T08:53:03.598Z,10.12
2023-02-22T08:55:38.567Z,11.10
2023-02-22T08:58:10.768Z,13.43
2023-02-22T09:00:42.943Z,14.52
2023-02-22T09:03:15.568Z,15.52
2023-02-22T09:05:47.301Z,15.51
2023-02-22T09:08:19.679Z,16.00
2023-02-22T09:10:52.013Z,16.55
2023-02-22T09:13:23.548Z,16.51
2023-02-22T09:15:55.179Z,15.77
2023-02-22T09:18:39.033Z,16.19
2023-02-22T09:21:15.333Z,16.25
2023-02-22T09:23:47.964Z,15.81
2023-02-22T09:26:19.570Z,17.06
2023-02-22T09:28:51.219Z,17.98
2023-02-22T09:31:23.108Z,16.24
2023-02-22T09:33:54.929Z,16.96
2023-02-22T09:36:26.529Z,15.60
2023-02-22T09:38:58.121Z,15.58
2023-02-22T09:41:54.377Z,16.92
2023-02-22T09:45:12.290Z,17.42
2023-02-22T09:47:50.553Z,16.09
2023-02-22T09:50:30.318Z,15.86
2023-02-22T09:53:20.228Z,16.32
2023-02-22T09:55:54.042Z,16.45
2023-02-22T09:58:40.748Z,16.14
2023-02-22T10:01:16.605Z,16.06
2023-02-22T10:04:01.238Z,15.42
2023-02-22T10:06:35.389Z,15.82
2023-02-22T10:09:06.954Z,15.53
2023-02-22T10:12:10.089Z,17.36
2023-02-22T10:14:44.720Z,17.21
2023-02-22T10:17:39.732Z,15.43
2023-02-22T10:20:23.969Z,14.77
2023-02-22T10:23:32.143Z,15.62
2023-02-22T10:26:23.098Z,15.94
2023-02-22T10:29:02.805Z,15.91
2023-02-22T10:31:43.977Z,15.16
2023-02-22T10:34:26.245Z,15.49
2023-02-22T10:37:24.715Z,15.50
2023-02-22T10:40:18.400Z,14.88
2023-02-22T10:42:50.374Z,15.20
2023-02-22T10:45:26.820Z,14.21
2023-02-22T10:48:05.581Z,14.09
2023-02-22T10:50:42.133Z,14.03
2023-02-22T10:53:14.779Z,13.69
2023-02-22T10:56:06.601Z,12.88
2023-02-22T10:59:03.132Z,12.44
2023-02-22T11:01:39.491Z,12.95
2023-02-22T11:04:20.738Z,11.88
2023-02-22T11:07:01.289Z,11.89
2023-02-22T11:09:49.633Z,11.50
2023-02-22T11:12:32.124Z,12.04
2023-02-22T11:15:28.414Z,11.77
2023-02-22T11:18:00.124Z,11.61
2023-02-22T11:20:39.280Z,11.95
2023-02-22T11:23:11.030Z,11.60
2023-02-22T11:25:43.120Z,11.63
2023-02-22T11:28:28.004Z,11.20
2023-02-22T11:31:13.917Z,11.10
2023-02-22T11:34:00.127Z,10.72
2023-02-22T11:36:37.920Z,10.68
2023-02-22T11:39:24.759Z,10.53
2023-02-22T11:41:56.736Z,10.74
2023-02-22T11:44:31.612Z,10.88
2023-02-22T11:47:03.593Z,11.11
2023-02-22T11:49:44.071Z,10.93
2023-02-22T11:52:39.295Z,11.65
2023-02-22T11:55:36.341Z,11.26
2023-02-22T11:58:48.406Z,11.65
2023-02-22T12:01:37.266Z,11.40
2023-02-22T12:04:31.926Z,11.51
2023-02-22T12:07:18.666Z,11.68
2023-02-22T12:10:00.644Z,11.61
2023-02-22T12:12:41.413Z,11.76
2023-02-22T12:15:28.908Z,11.65
2023-02-22T12:18:09.983Z,11.82
2023-02-22T12:20:51.373Z,11.67
2023-02-22T12:23:45.821Z,11.10
2023-02-22T12:26:29.515Z,10.87
2023-02-22T12:29:11.398Z,11.56
2023-02-22T12:31:49.838Z,11.65
2023-02-22T12:34:27.549Z,11.25
2023-02-22T12:37:23.958Z,10.87
2023-02-22T12:40:06.004Z,11.42
2023-02-22T12:42:55.642Z,12.06
2023-02-22T12:45:41.637Z,11.51
2023-02-22T12:48:15.913Z,11.39
2023-02-22T12:50:55.448Z,11.19
2023-02-22T12:53:44.956Z,11.49
2023-02-22T12:56:32.684Z,11.46
2023-02-22T12:59:20.763Z,12.12
2023-02-22T13:02:00.561Z,11.76
2023-02-22T13:04:32.153Z,11.89
2023-02-22T13:07:29.795Z,12.23
2023-02-22T13:10:36.583Z,12.53
2023-02-22T13:13:51.001Z,12.14
2023-02-22T13:16:51.685Z,12.63
2023-02-22T13:19:42.937Z,12.50
2023-02-22T13:22:34.966Z,12.14
2023-02-22T13:25:27.717Z,11.94
2023-02-22T13:28:17.363Z,12.05
2023-02-22T13:31:14.930Z,12.33
2023-02-22T13:34:09.866Z,12.16
2023-02-22T13:36:59.541Z,12.21
2023-02-22T13:39:49.478Z,12.12
2023-02-22T13:42:47.346Z,12.29
2023-02-22T13:45:40.673Z,12.08
2023-02-22T13:48:32.329Z,12.42
2023-02-22T13:51:13.686Z,12.83
2023-02-22T13:53:55.254Z,12.86
2023-02-22T13:56:28.720Z,12.47
2023-02-22T13:59:03.534Z,12.71
2023-02-22T14:01:48.164Z,12.69
2023-02-22T14:04:29.334Z,12.63
2023-02-22T14:07:21.838Z,13.18
2023-02-22T14:09:56.220Z,12.93
2023-02-22T14:12:30.568Z,13.31
2023-02-22T14:15:26.534Z,13.18
2023-02-22T14:18:03.453Z,13.53
2023-02-22T14:20:38.006Z,13.32
2023-02-22T14:23:33.997Z,13.32
2023-02-22T14:26:14.932Z,13.40
2023-02-22T14:29:00.648Z,13.31
2023-02-22T14:31:54.839Z,12.81
2023-02-22T14:34:48.030Z,12.93
2023-02-22T14:37:35.807Z,13.34
2023-02-22T14:40:28.426Z,13.17
2023-02-22T14:43:20.399Z,13.05
2023-02-22T14:45:55.650Z,13.07
2023-02-22T14:48:41.278Z,13.23
2023-02-22T14:51:22.291Z,13.02
2023-02-22T14:54:00.106Z,12.87
2023-02-22T14:56:38.718Z,12.68
2023-02-22T14:59:18.991Z,13.02
2023-02-22T15:02:11.957Z,13.07
2023-02-22T15:04:54.992Z,13.59
2023-02-22T15:07:30.110Z,13.30
2023-02-22T15:10:06.650Z,13.07
2023-02-22T15:12:38.293Z,12.78
2023-02-22T15:15:18.626Z,11.90
2023-02-22T15:17:58.466Z,12.07
2023-02-22T15:20:30.547Z,11.79
2023-02-22T15:23:02.339Z,11.42
2023-02-22T15:25:34.163Z,10.97
2023-02-22T15:28:06.100Z,11.18
2023-02-22T15:30:37.773Z,11.42
2023-02-22T15:33:19.602Z,10.99
2023-02-22T15:35:57.770Z,10.68
2023-02-22T15:38:30.972Z,11.22
2023-02-22T15:41:05.829Z,10.94
2023-02-22T15:43:37.384Z,10.90
2023-02-22T15:46:09.514Z,11.23
2023-02-22T15:48:41.117Z,11.69
2023-02-22T15:51:15.300Z,11.70
2023-02-22T15:53:50.895Z,11.68
2023-02-22T15:56:29.257Z,11.69
2023-02-22T15:59:09.202Z,11.43
2023-02-22T16:01:45.367Z,11.03
2023-02-22T16:04:23.737Z,10.93
2023-02-22T16:07:08.534Z,10.59
2023-02-22T16:09:46.666Z,11.21
2023-02-22T16:12:21.232Z,11.56
2023-02-22T16:14:52.843Z,11.64
2023-02-22T16:17:44.572Z,12.02
2023-02-22T16:20:21.203Z,11.00
2023-02-22T16:22:57.980Z,11.13
2023-02-22T16:25:33.612Z,11.28
2023-02-22T16:28:26.847Z,10.68
2023-02-22T16:30:58.842Z,11.07
2023-02-22T16:33:30.506Z,11.28
2023-02-22T16:36:06.951Z,11.20
2023-02-22T16:38:38.806Z,11.84
2023-02-22T16:41:10.508Z,11.63
2023-02-22T16:43:43.310Z,11.31
2023-02-22T16:46:15.077Z,11.10
2023-02-22T16:48:46.829Z,11.32
2023-02-22T16:51:26.649Z,11.59
2023-02-22T16:53:58.494Z,11.52
2023-02-22T16:56:31.190Z,11.91
2023-02-22T16:59:11.213Z,11.90
2023-02-22T17:01:43.457Z,12.20
2023-02-22T17:04:26.074Z,11.82
2023-02-22T17:06:57.690Z,12.04
2023-02-22T17:09:29.288Z,11.80
2023-02-22T17:12:02.365Z,12.12
2023-02-22T17:14:35.936Z,11.98
2023-02-22T17:17:11.875Z,12.01
2023-02-22T17:19:43.715Z,12.31
2023-02-22T17:22:21.430Z,12.71
2023-02-22T17:24:53.113Z,12.25
2023-02-22T17:27:24.638Z,12.56
2023-02-22T17:29:56.221Z,12.57
2023-02-22T17:32:27.950Z,12.32
2023-02-22T17:35:02.405Z,12.58
2023-02-22T17:37:34.124Z,12.43
2023-02-22T17:40:06.315Z,12.60
2023-02-22T17:42:37.917Z,12.76
2023-02-22T17:45:12.013Z,12.47
2023-02-22T17:47:44.100Z,12.43
2023-02-22T17:50:16.537Z,12.62
2023-02-22T17:52:49.449Z,12.63
2023-02-22T17:55:22.173Z,12.68
2023-02-22T17:57:57.323Z,12.57
2023-02-22T18:00:34.768Z,12.36
2023-02-22T18:03:09.839Z,12.69
2023-02-22T18:05:55.659Z,12.39
2023-02-22T18:08:29.599Z,12.50
2023-02-22T18:11:04.228Z,12.49
2023-02-22T18:13:35.970Z,12.60
2023-02-22T18:16:10.980Z,12.59
2023-02-22T18:18:42.636Z,12.52
2023-02-22T18:21:14.398Z,12.53
2023-02-22T18:23:46.156Z,12.12
2023-02-22T18:26:20.328Z,11.91
2023-02-22T18:28:52.524Z,11.98
2023-02-22T18:31:24.137Z,12.16
2023-02-22T18:33:56.312Z,12.32
2023-02-22T18:36:28.471Z,11.88
2023-02-22T18:39:00.482Z,12.26
2023-02-22T18:41:32.159Z,12.31
2023-02-22T18:44:05.033Z,12.21
2023-02-22T18:46:36.884Z,12.11
2023-02-22T18:49:11.879Z,12.30
2023-02-22T18:51:43.531Z,12.38
2023-02-22T18:54:15.241Z,11.92
2023-02-22T18:56:46.957Z,12.04
2023-02-22T18:59:18.696Z,12.10
2023-02-22T19:01:50.554Z,11.97
2023-02-22T19:04:22.134Z,12.07
2023-02-22T19:06:55.186Z,12.15
2023-02-22T19:09:26.881Z,12.27
2023-02-22T19:11:58.511Z,12.05
2023-02-22T19:14:30.195Z,12.10
2023-02-22T19:17:02.015Z,12.26
2023-02-22T19:19:34.813Z,11.68
2023-02-22T19:22:06.477Z,11.75
2023-02-22T19:24:38.117Z,11.59
2023-02-22T19:27:11.102Z,11.97
2023-02-22T19:29:42.783Z,12.06
2023-02-22T19:32:14.445Z,12.04
2023-02-22T19:34:46.883Z,11.81
2023-02-22T19:37:19.231Z,11.89
2023-02-22T19:39:50.894Z,11.95
2023-02-22T19:42:22.629Z,11.54
2023-02-22T19:44:54.204Z,11.99
2023-02-22T19:47:25.931Z,11.81
2023-02-22T19:49:59.250Z,11.87
2023-02-22T19:52:31.900Z,11.84
2023-02-22T19:55:03.570Z,11.45
2023-02-22T19:57:35.213Z,11.67
2023-02-22T20:00:07.575Z,11.16
2023-02-22T20:02:42.861Z,11.67
2023-02-22T20:05:14.420Z,11.56
2023-02-22T20:07:46.092Z,11.51
2023-02-22T20:10:17.989Z,11.44
2023-02-22T20:12:49.853Z,11.05
2023-02-22T20:15:21.684Z,11.30
2023-02-22T20:17:54.571Z,11.20
2023-02-22T20:20:26.653Z,11.31
2023-02-22T20:22:58.861Z,11.46
2023-02-22T20:25:30.581Z,11.17
2023-02-22T20:28:02.403Z,11.09
2023-02-22T20:30:37.146Z,10.98
2023-02-22T20:33:09.012Z,11.30
2023-02-22T20:35:40.877Z,11.05
2023-02-22T20:38:13.918Z,11.40
2023-02-22T20:40:45.533Z,11.22
2023-02-22T20:43:17.120Z,11.26
2023-02-22T20:45:48.700Z,11.34
2023-02-22T20:48:20.254Z,11.24
2023-02-22T20:50:51.869Z,10.95
2023-02-22T20:53:23.917Z,11.23
2023-02-22T20:55:55.489Z,11.04
2023-02-22T20:58:27.496Z,10.61
2023-02-22T21:01:07.891Z,10.99
2023-02-22T21:03:41.144Z,11.27
2023-02-22T21:06:15.190Z,10.68
2023-02-22T21:08:54.858Z,11.07
2023-02-22T21:11:29.596Z,11.18
2023-02-22T21:14:02.405Z,10.79
2023-02-22T21:16:36.774Z,11.09
2023-02-22T21:19:11.942Z,11.16
2023-02-22T21:21:43.586Z,11.22
2023-02-22T21:24:15.434Z,10.98
2023-02-22T21:26:47.064Z,10.82
2023-02-22T21:29:19.445Z,11.00
2023-02-22T21:31:51.170Z,11.09
2023-02-22T21:34:22.802Z,11.19
2023-02-22T21:36:54.517Z,11.22
2023-02-22T21:39:26.196Z,11.06
2023-02-22T21:41:57.902Z,11.30
2023-02-22T21:44:29.609Z,11.47
2023-02-22T21:47:01.265Z,11.46
2023-02-22T21:49:32.993Z,11.58
2023-02-22T21:52:04.707Z,11.80
2023-02-22T21:54:36.452Z,11.87
2023-02-22T21:57:08.996Z,11.71
2023-02-22T21:59:40.548Z,11.76
2023-02-22T22:02:12.150Z,11.59
2023-02-22T22:04:43.740Z,11.72
2023-02-22T22:07:15.335Z,11.57
2023-02-22T22:09:46.906Z,11.80
2023-02-22T22:12:18.864Z,11.78
2023-02-22T22:14:52.600Z,11.80
2023-02-22T22:17:24.237Z,12.01
2023-02-22T22:19:55.803Z,12.07
2023-02-22T22:22:27.379Z,12.12
2023-02-22T22:24:59.000Z,11.91
2023-02-22T22:27:30.729Z,11.76
2023-02-22T22:30:02.302Z,11.74
2023-02-22T22:32:34.389Z,11.79
2023-02-22T22:35:08.690Z,11.96
2023-02-22T22:37:42.368Z,11.76
2023-02-22T22:40:14.238Z,11.87
2023-02-22T22:42:46.370Z,11.93
2023-02-22T22:45:17.993Z,11.49
2023-02-22T22:47:49.572Z,11.42
2023-02-22T22:50:21.172Z,11.51
2023-02-22T22:52:53.649Z,11.44
2023-02-22T22:55:25.305Z,11.69
2023-02-22T22:57:56.884Z,11.26
2023-02-22T23:00:28.462Z,11.02
2023-02-22T23:03:00.603Z,11.51
2023-02-22T23:05:40.089Z,11.77
2023-02-22T23:08:11.722Z,11.59
2023-02-22T23:10:43.291Z,11.84
2023-02-22T23:13:15.021Z,11.81
2023-02-22T23:15:46.858Z,11.38
2023-02-22T23:18:18.508Z,11.62
2023-02-22T23:20:50.189Z,11.79
2023-02-22T23:23:24.110Z,11.43
2023-02-22T23:26:08.311Z,11.12
2023-02-22T23:28:41.329Z,11.47
2023-02-22T23:31:16.296Z,11.53
2023-02-22T23:33:47.998Z,11.24
2023-02-22T23:36:20.245Z,11.42
2023-02-22T23:38:51.884Z,11.60
2023-02-22T23:41:23.473Z,11.83
2023-02-22T23:43:55.656Z,11.62
2023-02-22T23:46:27.345Z,11.61
2023-02-22T23:48:58.981Z,11.73
2023-02-22T23:51:31.540Z,11.27
2023-02-22T23:54:03.185Z,11.46
2023-02-22T23:56:36.987Z,11.43
2023-02-22T23:59:10.737Z,11.45
